• Join FlightAware (Why Join?)
  • Login
  • US Flag 
11:57PM EDT


 

Airport Tracker/Info


-or-


 

Live Flight TrackerFlight Track Log ✈ EJA689 ✈ 13-May-2013 ✈ KITH - KORD

Flight Track Log - Related Links

Times and Time Zones

All times are in EDT time to prevent confusion due to time zone crossing. See the EJA689 flight status page for this flight to view local times or setup timezone preferences in your user account.

Time Position Orientation Groundspeed Altitude Reporting Facility
EDT Latitude Longitude Course Direction KTS MPH feet Rate Location/Type
11:33AM 42.5542 -76.5686 270° West 226 260 7,400  Level New York Center
11:36AM 42.5961 -76.8006 284° West 266 306 13,700 3,000 Climbing Cleveland Center
11:37AM 42.6189 -76.9206 285° West 304 350 17,200 2,580 Climbing Cleveland Center
11:38AM 42.4931 -77.1395 270° West  Level Estimated
11:38AM 42.6436 -77.0489 285° West 336 387 18,900  Level Cleveland Center
11:39AM 42.4929 -77.2757 270° West  Level Estimated
11:39AM 42.6500 -77.1167 277° West 360 414 19,000  Level Toronto Center
11:40AM 42.6667 -77.2833 278° West 360 414 19,000 1,140 Level Toronto Center
11:41AM 42.7000 -77.3833 294° West 360 414 21,300 2,700 Climbing Toronto Center
11:42AM 42.7333 -77.5500 285° West 370 426 24,400 3,000 Climbing Toronto Center
11:43AM 42.7500 -77.6833 280° West 380 437 27,300 2,580 Climbing Toronto Center
11:44AM 42.7833 -77.8000 291° West 370 426 29,600 2,160 Climbing Toronto Center
11:45AM 42.8167 -77.9333 289° West 370 426 31,700 1,740 Climbing Toronto Center
11:46AM 42.8833 -78.0333 312° West 370 426 33,100 1,440 Climbing Toronto Center
11:47AM 42.9333 -78.1833 295° West 370 426 34,600 1,320 Climbing Toronto Center
11:48AM 42.9833 -78.2833 304° West 370 426 35,800 1,140 Climbing Toronto Center
11:49AM 43.0167 -78.4167 289° West 360 414 36,900 1,020 Climbing Toronto Center
11:50AM 43.0333 -78.5333 281° West 360 414 37,900 960 Climbing Toronto Center
11:51AM 43.0333 -78.6833 270° West 360 414 38,900 960 Climbing Toronto Center
11:52AM 43.0333 -78.8167 270° West 350 403 39,900 540 Climbing Toronto Center
11:53AM 43.0333 -78.9500 270° West 350 403 40,000  Climbing Toronto Center
11:54AM 43.0333 -79.1167 270° West 370 426 40,000  Level Toronto Center
11:55AM 43.0333 -79.2500 270° West 390 449 40,000  Level Toronto Center
11:56AM 43.0333 -79.4000 270° West 400 460 40,000  Level Toronto Center
11:57AM 43.0333 -79.5500 270° West 400 460 40,000  Level Toronto Center
11:58AM 43.0333 -79.7000 270° West 400 460 40,000  Level Toronto Center
11:59AM 43.0333 -79.8667 270° West 400 460 40,000  Level Toronto Center
12:00PM 43.0333 -80.0000 270° West 400 460 40,000  Level Toronto Center
12:01PM 43.0333 -80.1500 270° West 400 460 40,000  Level Toronto Center
12:02PM 43.0333 -80.3167 270° West 400 460 40,000  Level Toronto Center
12:03PM 43.0333 -80.4500 270° West 400 460 40,000  Level Toronto Center
12:04PM 43.0333 -80.6167 270° West 400 460 40,000  Level Toronto Center
12:05PM 43.0333 -80.7667 270° West 410 472 40,000  Level Toronto Center
12:06PM 43.0167 -80.9333 262° West 410 472 40,000  Level Toronto Center
12:07PM 43.0167 -81.1000 270° West 410 472 40,000  Level Toronto Center
12:08PM 43.0333 -81.2333 280° West 400 460 40,000  Level Toronto Center
12:09PM 43.1000 -81.3667 304° West 400 460 40,000  Level Toronto Center
12:10PM 43.1667 -81.4833 308° West 400 460 40,000  Level Toronto Center
12:11PM 43.2000 -81.6167 289° West 390 449 40,000  Level Toronto Center
12:12PM 43.1833 -81.7833 262° West 410 472 40,000  Level Toronto Center
12:13PM 43.1500 -81.9167 251° West 410 472 40,000 -300 Level Toronto Center
12:14PM 43.1333 -82.0833 262° West 420 483 39,500 -960 Descending Toronto Center
12:15PM 43.1333 -82.2333 270° West 410 472 38,100 -1,500 Descending Toronto Center
12:16PM 43.1167 -82.4000 262° West 410 472 36,600 -2,040 Descending Toronto Center
12:17PM 43.1000 -82.5333 260° West 400 460 34,100 -2,580 Descending Toronto Center
12:17PM 43.0894 -82.6728 264° West 409 471 32,100 -2,400 Descending Cleveland Center
12:18PM 43.0719 -82.8256 261° West 409 471 30,000 -1,080 Descending Cleveland Center
12:19PM 43.0564 -82.9814 262° West 409 471 30,000  Level Cleveland Center
12:20PM 43.0383 -83.1369 261° West 409 471 30,000  Level Cleveland Center
12:21PM 43.0206 -83.2781 260° West 415 478 30,000  Level Cleveland Center
12:22PM 43.0022 -83.4306 261° West 415 478 30,000  Level Cleveland Center
12:23PM 42.9839 -83.5831 261° West 415 478 30,000  Level Cleveland Center
12:24PM 42.9672 -83.7383 262° West 415 478 30,000  Level Cleveland Center
12:25PM 42.9503 -83.8964 262° West 415 478 30,000  Level Cleveland Center
12:26PM 42.9356 -84.0489 263° West 415 478 30,000  Level Cleveland Center
12:27PM 42.9203 -84.2039 262° West 415 478 30,000  Level Cleveland Center
12:28PM 42.9042 -84.3789 263° West 415 478 30,000  Level Cleveland Center
12:29PM 42.8886 -84.5339 262° West 420 483 30,000  Level Cleveland Center
12:30PM 42.8861 -84.5578 262° West 417 480 30,000  Level Chicago Center
12:31PM 42.8706 -84.7128 262° West 414 476 30,000  Level Chicago Center
12:32PM 42.8536 -84.8697 262° West 419 482 30,000  Level Chicago Center
12:33PM 42.8375 -85.0264 262° West 419 482 30,000 -540 Level Chicago Center
12:34PM 42.8181 -85.2122 262° West 414 476 29,000 -1,020 Descending Chicago Center
12:35PM 42.8011 -85.3642 261° West 407 468 28,000 -540 Descending Chicago Center
12:36PM 42.7825 -85.5211 261° West 417 480 28,000  Level Chicago Center
12:37PM 42.7533 -85.6803 256° West 429 494 28,000 -900 Level Chicago Center
12:38PM 42.7250 -85.8392 256° West 430 495 26,200 -2,340 Descending Chicago Center
12:39PM 42.6972 -85.9917 256° West 416 479 23,200 -2,520 Descending Chicago Center
12:40PM 42.6694 -86.1408 256° West 408 470 21,000 -1,620 Descending Chicago Center
12:41PM 42.6439 -86.2833 256° West 394 453 19,900 -1,380 Descending Chicago Center
12:42PM 42.6125 -86.4464 255° West 375 432 18,200 -1,740 Descending Chicago Center
12:43PM 42.5878 -86.5828 256° West 373 429 16,400 -1,860 Descending Chicago Center
12:44PM 42.5619 -86.7142 255° West 362 417 14,400 -1,680 Descending Chicago Center
12:45PM 42.5303 -86.8392 251° West 354 407 13,000 -1,320 Descending Chicago Center
12:46PM 42.4969 -86.9614 250° West 346 398 11,700 -1,320 Descending Chicago Center
12:47PM 42.4639 -87.0772 249° West 333 383 10,300 -1,320 Descending Chicago Center
12:48PM 42.3964 -87.1553 221° Southwest 305 351 9,000 -660 Descending Chicago Center
12:49PM 42.3150 -87.1728 189° South 300 345 9,000 -300 Level Chicago Center
12:50PM 42.2381 -87.1881 188° South 303 349 8,500 -1,020 Descending Chicago Center
12:51PM 42.1417 -87.2083 189° South 293 337 7,000 -960 Descending Chicago Center
12:52PM 42.0647 -87.2258 190° South 282 325 6,600 -480 Descending Chicago Center
12:53PM 42.0058 -87.2683 208° Southwest 267 307 6,000 -300 Descending Chicago Center
12:54PM 41.9842 -87.3503 250° West 235 270 6,000  Level Chicago Center
12:55PM 41.9833 -87.4500 269° West 207 238 6,000  Level Chicago TRACON
12:56PM 41.9833 -87.5167 270° West 170 196 6,000 -300 Level Chicago TRACON
12:58PM 41.9833 -87.5833 270° West 173 199 5,400 -840 Descending Chicago TRACON
12:58PM 41.9833 -87.6333 270° West 172 198 4,400 -1,020 Descending Chicago TRACON
12:59PM 41.9833 -87.7000 270° West 176 203 3,500 -960 Descending Chicago TRACON
01:00PM 41.9833 -87.7667 270° West 167 192 2,500 -900 Descending Chicago TRACON
01:01PM 41.9833 -87.8167 270° West 145 167 1,700 -780 Descending Chicago TRACON
01:02PM 41.9833 -87.8667 270° West 124 143 1,000 -720 Descending Chicago TRACON
01:05PM 41.9667 -87.9000 180° South  Level FlightAware Approximate